M60 weather

Woodruff County Airport
Augusta, Arkansas, United States

Public forecast

Using degrees Fahrenheit for public forecast. Weather courtesy of forecast.io.

Closest aviation weather report (METAR) to Woodruff County Airport

Closest report is Newport Regional Airport, 22.4 nm (41.5 km) NNE. Retrieved UTC (0 seconds ago):

Closest aviation forecast (TAF) to Woodruff County Airport

Closest forecast is Jonesboro Municipal Airport, 45.4 nm (84.0 km) NE. Retrieved 2020/01/19 06:24 UTC (36 minutes ago):

TAF KJBR 190520Z 1906/2006 33010KT P6SM SKC FM191500 32012KT P6SM FEW250 FM200200 01008KT P6SM SKC